Terminal Aerodrome Forecast
Issued by NWS Albany, NY

Home | Current Version | Previous Version | Text Only | Print | Product List | Glossary On
Versions: 1 2 3 4 5 6 7 8 9 10 11 12 13 14 15
394
FTUS41 KALY 240825 AAB
TAFGFL
TAF AMD
KGFL 240825Z 2408/2506 36003KT 5SM BR SCT003 SCT050
      TEMPO 2408/2412 2SM BR BKN007 OVC015
     FM241600 16003KT P6SM SCT015 OVC025
     FM242000 19008KT P6SM SCT025 OVC035
     FM250300 VRB03KT 3SM BR BKN025=

USA.gov is the U.S. government's official web portal to all federal, state and local government web resources and services.